Time;durP1;ratioP1;P1;durP2;ratioP2;P2;SDS_P1;SDS_P2;PMS_P1;PMS_P2;Temp;Humidity;BMP_temperature;BMP_pressure;BME280_temperature;BME280_humidity;BME280_pressure;Samples;Min_cycle;Max_cycle;Signal;HPM_P1;HPM_P2
2022/09/29 00:01:44;;;;;;;;;;;;;;;20.66;49.53;99610.13;5138942;27;19930;-47
2022/09/29 00:04:10;;;;;;;;;;;;;;;20.67;49.43;99601.50;5139292;27;19938;-48
2022/09/29 00:06:36;;;;;;;;;;;;;;;20.66;49.34;99602.66;5138445;27;20065;-47
2022/09/29 00:09:01;;;;;;;;;;;;;;;20.67;49.45;99611.75;5141336;27;19987;-46
2022/09/29 00:11:27;;;;;;;;;;;;;;;20.66;49.48;99604.59;5139683;27;20351;-46
2022/09/29 00:13:53;;;;;;;;;;;;;;;20.66;49.53;99607.38;5139024;27;19946;-46
2022/09/29 00:16:18;;;;;;;;;;;;;;;20.66;49.37;99610.13;5139060;27;20430;-49
2022/09/29 00:18:44;;;;;;;;;;;;;;;20.65;49.38;99611.28;5142523;27;19930;-47
2022/09/29 00:21:12;;;;;;;;;;;;;;;20.65;49.37;99611.28;5124839;27;19987;-46
2022/09/29 00:23:38;;;;;;;;;;;;;;;20.64;49.40;99606.88;5121575;27;20373;-47
2022/09/29 00:26:05;;;;;;;;;;;;;;;20.65;49.37;99606.56;5120780;27;19975;-47
2022/09/29 00:28:31;;;;;;;;;;;;;;;20.65;49.61;99600.22;5114766;27;20423;-46
2022/09/29 00:30:57;;;;;;;;;;;;;;;20.67;49.41;99603.47;5137627;27;19968;-45
2022/09/29 00:33:23;;;;;;;;;;;;;;;20.65;49.50;99602.97;5141908;27;20393;-46
2022/09/29 00:36:05;;;;;;;;;;;;;;;20.65;49.36;99608.50;5136138;27;19923;-47
2022/09/29 00:38:30;;;;;;;;;;;;;;;20.65;49.50;99608.50;5134306;27;19955;-46
2022/09/29 00:40:56;;;;;;;;;;;;;;;20.66;49.32;99604.59;5143194;27;19946;-47
2022/09/29 00:43:23;;;;;;;;;;;;;;;20.64;49.46;99607.69;5139078;27;19991;-46
2022/09/29 00:45:51;;;;;;;;;;;;;;;20.65;49.54;99605.75;5141792;27;20014;-48
2022/09/29 00:48:18;;;;;;;;;;;;;;;20.65;49.54;99606.56;5142428;27;20034;-47
2022/09/29 00:50:44;;;;;;;;;;;;;;;20.66;49.35;99601.84;5145933;27;19962;-47
2022/09/29 00:53:11;;;;;;;;;;;;;;;20.64;49.33;99613.22;5122085;27;19923;-46
2022/09/29 00:55:38;;;;;;;;;;;;;;;20.64;49.49;99607.69;5143206;27;20397;-46
2022/09/29 00:58:05;;;;;;;;;;;;;;;20.65;49.31;99611.28;5121086;27;20010;-46
2022/09/29 01:00:31;;;;;;;;;;;;;;;20.64;49.41;99610.47;5141315;27;20065;-45
2022/09/29 01:03:01;;;;;;;;;;;;;;;20.64;49.58;99615.16;5142446;27;20053;-45
2022/09/29 01:05:29;;;;;;;;;;;;;;;20.63;49.46;99614.34;5136785;27;20010;-46
2022/09/29 01:07:54;;;;;;;;;;;;;;;20.64;49.37;99613.22;5122286;27;20426;-47
2022/09/29 01:10:20;;;;;;;;;;;;;;;20.65;49.40;99608.50;5137761;27;19927;-47
2022/09/29 01:12:46;;;;;;;;;;;;;;;20.64;49.48;99602.16;5145894;27;20010;-46
2022/09/29 01:15:13;;;;;;;;;;;;;;;20.64;49.44;99609.63;5138716;27;19924;-47
2022/09/29 01:17:38;;;;;;;;;;;;;;;20.64;49.28;99613.22;5137535;27;19960;-45
2022/09/29 01:20:11;;;;;;;;;;;;;;;20.64;49.54;99610.47;5138376;27;19942;-45
2022/09/29 01:22:57;;;;;;;;;;;;;;;20.64;49.52;99607.69;5139947;27;20042;-45
2022/09/29 01:25:28;;;;;;;;;;;;;;;20.64;49.30;99609.63;5124830;27;20021;-46
2022/09/29 01:30:50;;;;;;;;;;;;;;;20.64;49.38;99616.00;5165509;27;19925;-43
2022/09/29 01:33:33;;;;;;;;;;;;;;;20.62;49.47;99612.72;5165584;27;20023;-43
2022/09/29 01:36:04;;;;;;;;;;;;;;;20.63;49.35;99616.31;5159533;27;19974;-45
2022/09/29 01:38:49;;;;;;;;;;;;;;;20.62;49.54;99617.44;5146513;27;20442;-43
2022/09/29 01:41:17;;;;;;;;;;;;;;;20.64;49.49;99617.94;5149113;27;19966;-48
2022/09/29 01:43:45;;;;;;;;;;;;;;;20.64;49.58;99609.63;5146583;27;19966;-48
2022/09/29 01:46:14;;;;;;;;;;;;;;;20.64;49.44;99629.00;5160416;27;20390;-46
2022/09/29 01:48:42;;;;;;;;;;;;;;;20.61;49.56;99621.34;5146686;27;20045;-46
2022/09/29 01:51:08;;;;;;;;;;;;;;;20.61;49.54;99621.34;5145623;27;19958;-46
2022/09/29 01:53:35;;;;;;;;;;;;;;;20.62;49.57;99620.22;5165883;27;19957;-47
2022/09/29 01:56:02;;;;;;;;;;;;;;;20.62;49.47;99622.97;5162652;27;20058;-48
2022/09/29 01:58:29;;;;;;;;;;;;;;;20.63;49.40;99627.38;5146437;27;19938;-48
2022/09/29 02:00:56;;;;;;;;;;;;;;;20.62;49.47;99621.03;5163926;27;19963;-47
2022/09/29 02:03:27;;;;;;;;;;;;;;;20.60;49.43;99623.31;5164132;27;20356;-46
2022/09/29 02:05:56;;;;;;;;;;;;;;;20.62;49.41;99628.50;5164726;27;19970;-46
2022/09/29 02:08:38;;;;;;;;;;;;;;;20.61;49.49;99624.94;5163612;27;19966;-46
2022/09/29 02:11:08;;;;;;;;;;;;;;;20.61;49.35;99624.94;5165088;27;19963;-47
2022/09/29 02:13:34;;;;;;;;;;;;;;;20.60;49.59;99628.84;5144596;27;19965;-46
2022/09/29 02:16:00;;;;;;;;;;;;;;;20.62;49.40;99626.56;5162537;27;19970;-49
2022/09/29 02:18:27;;;;;;;;;;;;;;;20.62;49.50;99625.75;5161660;27;19930;-46
2022/09/29 02:20:53;;;;;;;;;;;;;;;20.62;49.30;99631.28;5164629;27;20369;-44
2022/09/29 02:23:19;;;;;;;;;;;;;;;20.61;49.46;99627.69;5167798;27;20401;-44
2022/09/29 02:25:45;;;;;;;;;;;;;;;20.61;49.40;99633.22;5165492;27;19930;-46
2022/09/29 02:28:11;;;;;;;;;;;;;;;20.61;49.33;99633.22;5150159;27;20221;-44
2022/09/29 02:30:36;;;;;;;;;;;;;;;20.61;49.34;99632.41;5163391;27;19942;-46
2022/09/29 02:33:02;;;;;;;;;;;;;;;20.60;49.33;99637.16;5165134;27;19968;-46
2022/09/29 02:35:28;;;;;;;;;;;;;;;20.59;49.37;99629.97;5163908;27;20247;-49
2022/09/29 02:38:01;;;;;;;;;;;;;;;20.61;49.25;99635.19;5147854;27;19973;-46
2022/09/29 02:40:47;;;;;;;;;;;;;;;20.60;49.48;99641.88;5160047;27;20023;-47
2022/09/29 02:43:16;;;;;;;;;;;;;;;20.59;49.50;99627.19;5135477;27;20366;-46
2022/09/29 02:46:02;;;;;;;;;;;;;;;20.60;49.48;99620.53;5145429;27;20022;-46
2022/09/29 02:48:47;;;;;;;;;;;;;;;20.60;49.33;99625.28;5136262;27;19995;-46
2022/09/29 02:51:16;;;;;;;;;;;;;;;20.61;49.39;99626.88;5149644;27;20030;-46
2022/09/29 02:53:45;;;;;;;;;;;;;;;20.61;49.30;99624.94;5151951;27;20014;-46
2022/09/29 02:56:22;;;;;;;;;;;;;;;20.60;49.45;99626.09;5133110;27;19969;-45
2022/09/29 02:58:50;;;;;;;;;;;;;;;20.61;49.36;99630.47;5151569;27;20044;-48
2022/09/29 03:01:16;;;;;;;;;;;;;;;20.61;49.40;99626.88;5131657;27;19958;-47
2022/09/29 03:03:42;;;;;;;;;;;;;;;20.60;49.26;99625.28;5133179;27;20014;-46
2022/09/29 03:06:08;;;;;;;;;;;;;;;20.60;49.45;99630.81;5133138;27;19946;-47
2022/09/29 03:08:33;;;;;;;;;;;;;;;20.60;49.17;99628.84;5131675;27;19923;-46
2022/09/29 03:10:59;;;;;;;;;;;;;;;20.59;49.43;99627.19;5147958;27;19931;-46
2022/09/29 03:13:24;;;;;;;;;;;;;;;20.60;49.35;99619.72;5150562;27;20015;-46
2022/09/29 03:15:50;;;;;;;;;;;;;;;20.60;49.44;99631.63;5147906;27;19934;-45
2022/09/29 03:18:15;;;;;;;;;;;;;;;20.59;49.27;99629.97;5150969;27;19929;-46
2022/09/29 03:20:41;;;;;;;;;;;;;;;20.60;49.36;99628.84;5151088;27;19954;-46
2022/09/29 03:23:07;;;;;;;;;;;;;;;20.60;49.45;99628.03;5145411;27;20612;-46
2022/09/29 03:25:32;;;;;;;;;;;;;;;20.59;49.40;99629.97;5150133;27;19931;-45
2022/09/29 03:27:58;;;;;;;;;;;;;;;20.60;49.41;99628.03;5149760;27;19923;-47
2022/09/29 03:30:23;;;;;;;;;;;;;;;20.60;49.31;99630.81;5149720;27;20274;-47
2022/09/29 03:32:49;;;;;;;;;;;;;;;20.59;49.40;99624.44;5133107;27;19992;-46
2022/09/29 03:35:14;;;;;;;;;;;;;;;20.60;49.31;99628.84;5150117;27;19923;-45
2022/09/29 03:37:40;;;;;;;;;;;;;;;20.61;49.23;99629.66;5149608;27;19931;-46
2022/09/29 03:40:06;;;;;;;;;;;;;;;20.61;49.22;99629.66;5148254;27;19976;-46
2022/09/29 03:42:32;;;;;;;;;;;;;;;20.59;49.44;99631.91;5149678;27;19981;-46
2022/09/29 03:44:57;;;;;;;;;;;;;;;20.60;49.22;99634.38;5150535;27;19923;-46
2022/09/29 03:47:23;;;;;;;;;;;;;;;20.60;49.16;99628.03;5129836;27;20323;-46
2022/09/29 03:49:48;;;;;;;;;;;;;;;20.59;49.31;99629.97;5148976;27;19942;-46
2022/09/29 03:52:14;;;;;;;;;;;;;;;20.58;49.38;99636.63;5149848;27;20362;-46
2022/09/29 03:54:39;;;;;;;;;;;;;;;20.59;49.35;99627.19;5133419;27;19927;-47
2022/09/29 03:57:05;;;;;;;;;;;;;;;20.59;49.40;99631.91;5147430;27;19923;-49
2022/09/29 03:59:30;;;;;;;;;;;;;;;20.58;49.29;99636.63;5150362;27;20453;-48
2022/09/29 04:01:56;;;;;;;;;;;;;;;20.57;49.20;99635.00;5148970;27;19923;-47
2022/09/29 04:04:22;;;;;;;;;;;;;;;20.59;49.26;99640.22;5150077;27;19978;-47
2022/09/29 04:06:47;;;;;;;;;;;;;;;20.60;49.38;99647.41;5150914;27;20259;-47
2022/09/29 04:09:13;;;;;;;;;;;;;;;20.59;49.23;99646.56;5132171;27;19923;-46
2022/09/29 04:11:38;;;;;;;;;;;;;;;20.58;49.36;99650.47;5149797;27;19927;-47
2022/09/29 04:14:04;;;;;;;;;;;;;;;20.58;49.26;99647.69;5148755;27;20271;-47
2022/09/29 04:16:30;;;;;;;;;;;;;;;20.60;49.31;99652.94;5130283;27;19966;-47
2022/09/29 04:18:55;;;;;;;;;;;;;;;20.59;49.35;99654.84;5148412;27;19935;-48
2022/09/29 04:21:21;;;;;;;;;;;;;;;20.59;49.34;99656.81;5149382;27;20317;-49
2022/09/29 04:23:47;;;;;;;;;;;;;;;20.57;49.27;99653.56;5150475;27;19931;-47
2022/09/29 04:26:12;;;;;;;;;;;;;;;20.57;49.43;99653.56;5129819;27;20538;-47
2022/09/29 04:28:38;;;;;;;;;;;;;;;20.57;49.27;99656.31;5151377;27;19931;-46
2022/09/29 04:31:04;;;;;;;;;;;;;;;20.57;49.25;99659.91;5130756;27;20511;-48
2022/09/29 04:33:30;;;;;;;;;;;;;;;20.57;49.37;99661.84;5150075;27;19955;-48
2022/09/29 04:35:56;;;;;;;;;;;;;;;20.56;49.33;99661.03;5148361;27;19938;-47
2022/09/29 04:38:21;;;;;;;;;;;;;;;20.56;49.37;99668.53;5131262;27;20022;-46
2022/09/29 04:40:47;;;;;;;;;;;;;;;20.58;49.27;99661.53;5148573;27;19926;-46
2022/09/29 04:43:13;;;;;;;;;;;;;;;20.57;49.21;99662.66;5130560;27;20017;-46
2022/09/29 04:45:38;;;;;;;;;;;;;;;20.58;49.09;99666.25;5145641;27;19938;-53
2022/09/29 04:48:04;;;;;;;;;;;;;;;20.57;49.10;99668.19;5148230;27;20408;-46
2022/09/29 04:50:29;;;;;;;;;;;;;;;20.58;49.27;99669.00;5147959;27;19923;-47
2022/09/29 04:52:55;;;;;;;;;;;;;;;20.57;49.04;99667.38;5149401;27;20323;-46
2022/09/29 04:55:21;;;;;;;;;;;;;;;20.57;49.10;99670.16;5129662;27;20608;-45
2022/09/29 04:57:47;;;;;;;;;;;;;;;20.57;49.25;99673.72;5146043;27;19934;-45
2022/09/29 05:00:13;;;;;;;;;;;;;;;20.58;49.19;99677.31;5141493;27;20022;-45
2022/09/29 05:02:38;;;;;;;;;;;;;;;20.54;49.18;99675.19;5146448;27;19927;-46
2022/09/29 05:05:05;;;;;;;;;;;;;;;20.56;49.25;99676.81;5147310;27;19930;-45
2022/09/29 05:07:33;;;;;;;;;;;;;;;20.54;49.32;99680.72;5128503;27;19966;-45
2022/09/29 05:09:58;;;;;;;;;;;;;;;20.45;49.69;99684.56;5128445;27;20021;-47
2022/09/29 05:12:24;;;;;;;;;;;;;;;20.51;49.18;99678.59;5142498;27;20294;-46
2022/09/29 05:14:49;;;;;;;;;;;;;;;20.56;48.37;99683.19;5144532;27;19927;-46
2022/09/29 05:17:15;;;;;;;;;;;;;;;20.52;48.92;99683.00;5143800;27;19931;-47
2022/09/29 05:19:40;;;;;;;;;;;;;;;20.52;48.93;99687.72;5145910;27;20393;-46
2022/09/29 05:22:06;;;;;;;;;;;;;;;20.50;49.00;99685.25;5142921;27;19923;-46
2022/09/29 05:24:31;;;;;;;;;;;;;;;20.49;49.32;99697.44;5149422;27;19931;-46
2022/09/29 05:26:57;;;;;;;;;;;;;;;20.50;49.16;99696.31;5147984;27;19934;-45
2022/09/29 05:29:24;;;;;;;;;;;;;;;20.53;48.80;99694.88;5147627;27;20167;-46
2022/09/29 05:31:49;;;;;;;;;;;;;;;20.50;48.88;99701.84;5132046;27;19930;-46
2022/09/29 05:34:15;;;;;;;;;;;;;;;19.97;48.90;99708.22;5146911;27;19976;-42
2022/09/29 05:36:41;;;;;;;;;;;;;;;20.29;49.21;99707.09;5127253;27;19930;-48
2022/09/29 05:39:07;;;;;;;;;;;;;;;20.42;49.05;99699.84;5148468;27;20426;-46
2022/09/29 05:41:32;;;;;;;;;;;;;;;20.46;49.04;99711.06;5146569;27;19948;-48
2022/09/29 05:44:00;;;;;;;;;;;;;;;20.50;48.86;99709.31;5148450;27;19924;-48
2022/09/29 05:46:25;;;;;;;;;;;;;;;20.49;48.71;99716.81;5146825;27;20475;-48
2022/09/29 05:48:51;;;;;;;;;;;;;;;20.53;49.17;99719.75;5141456;27;19942;-45
2022/09/29 05:51:17;;;;;;;;;;;;;;;20.52;48.92;99713.41;5137917;27;19984;-46
2022/09/29 05:53:48;;;;;;;;;;;;;;;20.52;48.83;99718.13;5145147;27;20324;-47
2022/09/29 05:56:14;;;;;;;;;;;;;;;20.50;48.35;99718.44;5124859;27;19931;-45
2022/09/29 05:58:40;;;;;;;;;;;;;;;20.47;48.91;99721.81;5145983;27;20419;-47
2022/09/29 06:01:06;;;;;;;;;;;;;;;20.50;48.62;99718.44;5126729;27;19923;-47
2022/09/29 06:03:33;;;;;;;;;;;;;;;20.50;48.73;99723.97;5124808;27;19931;-48
2022/09/29 06:06:03;;;;;;;;;;;;;;;20.48;47.75;99728.19;5147339;27;20446;-46
2022/09/29 06:08:28;;;;;;;;;;;;;;;20.49;47.62;99725.09;5123570;27;20067;-51
2022/09/29 06:10:54;;;;;;;;;;;;;;;20.48;47.58;99728.19;5146943;27;20350;-48
2022/09/29 06:13:19;;;;;;;;;;;;;;;20.49;47.80;99721.53;5144926;27;19950;-49
2022/09/29 06:15:45;;;;;;;;;;;;;;;20.51;48.36;99730.34;5142674;27;19923;-49
2022/09/29 06:18:11;;;;;;;;;;;;;;;20.50;48.62;99735.03;5138873;27;19953;-48
2022/09/29 06:20:37;;;;;;;;;;;;;;;20.51;48.54;99727.56;5135760;27;19979;-46
2022/09/29 06:23:03;;;;;;;;;;;;;;;20.52;48.70;99729.19;5140366;27;20018;-47
2022/09/29 06:25:28;;;;;;;;;;;;;;;20.51;48.33;99727.56;5147363;27;19926;-47
2022/09/29 06:27:54;;;;;;;;;;;;;;;20.52;48.47;99735.53;5146497;27;20042;-46
2022/09/29 06:30:19;;;;;;;;;;;;;;;20.54;48.60;99735.22;5142439;27;20178;-46
2022/09/29 06:32:45;;;;;;;;;;;;;;;20.56;48.56;99734.91;5142044;27;20030;-48
2022/09/29 06:37:57;;;;;;;;;;;;;;;20.49;47.97;99740.88;5119903;27;20014;-46
2022/09/29 06:40:26;;;;;;;;;;;;;;;20.52;47.94;99743.03;5141858;27;19966;-48
2022/09/29 06:42:52;;;;;;;;;;;;;;;20.56;48.25;99751.50;5139977;27;19934;-49
2022/09/29 06:45:18;;;;;;;;;;;;;;;20.57;48.18;99753.94;5140263;27;20077;-52
2022/09/29 06:47:47;;;;;;;;;;;;;;;20.56;48.33;99746.78;5144560;27;19955;-49
2022/09/29 06:50:13;;;;;;;;;;;;;;;20.56;48.39;99754.28;5139134;27;20781;-50
2022/09/29 06:52:38;;;;;;;;;;;;;;;20.57;48.58;99750.38;5142813;27;19927;-51
2022/09/29 06:55:04;;;;;;;;;;;;;;;20.58;48.58;99755.56;5147635;27;19984;-50
2022/09/29 06:57:29;;;;;;;;;;;;;;;20.56;48.62;99752.31;5140762;27;19933;-48
2022/09/29 06:59:55;;;;;;;;;;;;;;;20.57;48.71;99755.91;5116309;27;19930;-51
2022/09/29 07:02:21;;;;;;;;;;;;;;;20.58;48.44;99755.56;5118591;27;19932;-49
2022/09/29 07:04:47;;;;;;;;;;;;;;;20.58;48.68;99758.34;5108643;27;19931;-49
2022/09/29 07:07:13;;;;;;;;;;;;;;;20.58;48.69;99766.63;5122328;27;19970;-47
2022/09/29 07:09:39;;;;;;;;;;;;;;;20.60;48.62;99764.38;5122094;27;20066;-50
2022/09/29 07:12:04;;;;;;;;;;;;;;;20.60;48.56;99758.03;5132647;27;19931;-47
2022/09/29 07:14:30;;;;;;;;;;;;;;;20.58;48.34;99761.09;5129809;27;20895;-51
2022/09/29 07:16:58;;;;;;;;;;;;;;;20.58;48.56;99763.88;5131153;27;19923;-50
2022/09/29 07:19:23;;;;;;;;;;;;;;;20.59;48.62;99764.69;5131288;27;19927;-50
2022/09/29 07:21:49;;;;;;;;;;;;;;;20.60;48.58;99758.03;5140723;27;19976;-50
2022/09/29 07:24:14;;;;;;;;;;;;;;;20.61;48.72;99754.94;5131916;27;19979;-49
2022/09/29 07:26:40;;;;;;;;;;;;;;;20.58;48.69;99763.06;5114045;27;20053;-51
2022/09/29 07:29:05;;;;;;;;;;;;;;;20.58;48.43;99766.63;5132667;27;19938;-49
2022/09/29 07:31:31;;;;;;;;;;;;;;;20.58;48.73;99771.34;5132205;27;19927;-46
2022/09/29 07:34:12;;;;;;;;;;;;;;;20.57;48.60;99767.78;5137385;27;19926;-49
2022/09/29 07:36:38;;;;;;;;;;;;;;;20.58;48.62;99763.88;5126238;27;19938;-47
2022/09/29 07:39:04;;;;;;;;;;;;;;;20.59;48.31;99767.44;5135521;27;19985;-49
2022/09/29 07:41:29;;;;;;;;;;;;;;;20.58;48.88;99765.81;5139782;27;20034;-48
2022/09/29 07:43:55;;;;;;;;;;;;;;;20.58;48.85;99779.66;5137169;27;19927;-49
2022/09/29 07:46:20;;;;;;;;;;;;;;;20.59;48.59;99772.97;5127518;27;19928;-50
2022/09/29 07:48:46;;;;;;;;;;;;;;;20.49;48.09;99774.88;5132416;27;20025;-47
2022/09/29 07:51:13;;;;;;;;;;;;;;;20.47;48.56;99779.91;5134509;27;19931;-50
2022/09/29 07:53:38;;;;;;;;;;;;;;;20.50;48.86;99779.28;5118817;27;20030;-47
2022/09/29 07:56:08;;;;;;;;;;;;;;;20.47;48.80;99790.97;5130616;27;19931;-49
2022/09/29 07:58:34;;;;;;;;;;;;;;;20.49;48.73;99785.13;5138233;27;20013;-50
2022/09/29 08:01:00;;;;;;;;;;;;;;;20.49;49.09;99782.38;5112500;27;19967;-50
2022/09/29 08:03:26;;;;;;;;;;;;;;;20.50;49.27;99786.75;5112941;27;20419;-48
2022/09/29 08:05:52;;;;;;;;;;;;;;;20.53;49.30;99792.47;5126227;27;21383;-50
2022/09/29 08:08:17;;;;;;;;;;;;;;;20.58;48.90;99794.28;5126092;27;20022;-50
2022/09/29 08:10:43;;;;;;;;;;;;;;;20.58;49.25;99797.06;5116266;27;19938;-52
2022/09/29 08:13:18;;;;;;;;;;;;;;;20.62;48.97;99802.78;5129741;27;19922;-52
2022/09/29 08:15:44;;;;;;;;;;;;;;;20.62;49.01;99806.34;5128680;27;20251;-48
2022/09/29 08:18:09;;;;;;;;;;;;;;;20.64;49.23;99797.72;5131121;27;19935;-50
2022/09/29 08:20:35;;;;;;;;;;;;;;;20.62;49.04;99806.34;5134620;27;20915;-49
2022/09/29 08:23:01;;;;;;;;;;;;;;;20.62;49.15;99802.78;5136065;27;19941;-51
2022/09/29 08:25:26;;;;;;;;;;;;;;;20.64;49.27;99803.25;5135261;27;20398;-49
2022/09/29 08:27:52;;;;;;;;;;;;;;;20.63;49.33;99807.16;5131565;27;19938;-52
2022/09/29 08:30:21;;;;;;;;;;;;;;;20.58;50.78;99810.88;5125381;27;19976;-50
2022/09/29 08:32:50;;;;;;;;;;;;;;;20.69;49.91;99819.75;5128551;27;19979;-53
2022/09/29 08:35:16;;;;;;;;;;;;;;;20.68;49.96;99821.69;5118050;27;20139;-50
2022/09/29 08:37:41;;;;;;;;;;;;;;;20.68;49.77;99823.63;5107513;27;19923;-50
2022/09/29 08:40:07;;;;;;;;;;;;;;;20.65;49.64;99819.56;5119110;27;19938;-50
2022/09/29 08:42:53;;;;;;;;;;;;;;;20.63;49.30;99824.59;5128267;27;19931;-50
2022/09/29 08:45:22;;;;;;;;;;;;;;;20.60;48.75;99833.53;5114921;27;20140;-47
2022/09/29 08:47:48;;;;;;;;;;;;;;;20.58;48.65;99827.50;5131231;27;20019;-51
2022/09/29 08:50:16;;;;;;;;;;;;;;;20.60;48.66;99836.31;5133862;27;19927;-51
2022/09/29 08:52:42;;;;;;;;;;;;;;;20.61;48.64;99835.16;5111383;27;19977;-48
2022/09/29 08:57:54;;;;;;;;;;;;;;;20.63;48.46;99838.41;5150319;27;19926;-46
2022/09/29 09:00:20;;;;;;;;;;;;;;;20.60;48.47;99843.78;5125985;27;20025;-49
2022/09/29 09:03:05;;;;;;;;;;;;;;;20.61;48.51;99840.69;5151191;27;19942;-50
2022/09/29 09:05:34;;;;;;;;;;;;;;;20.61;48.55;99837.94;5136470;27;20189;-49
2022/09/29 09:08:20;;;;;;;;;;;;;;;20.58;48.06;99837.75;5149036;27;19967;-46
2022/09/29 09:10:48;;;;;;;;;;;;;;;20.62;48.71;99842.31;5135576;27;20034;-50
2022/09/29 09:15:56;;;;;;;;;;;;;;;20.60;48.08;99843.78;5149826;27;19975;-48
2022/09/29 09:18:26;;;;;;;;;;;;;;;20.60;48.42;99841.84;5147592;27;19967;-51
2022/09/29 09:20:55;;;;;;;;;;;;;;;20.62;48.21;99847.03;5151638;27;19980;-50
2022/09/29 09:23:23;;;;;;;;;;;;;;;20.63;48.46;99851.44;5140855;27;19923;-50
2022/09/29 09:26:03;;;;;;;;;;;;;;;20.65;48.59;99851.94;5127614;27;20030;-47
2022/09/29 09:28:33;;;;;;;;;;;;;;;20.66;48.30;99853.56;5133059;27;19962;-46
2022/09/29 09:31:00;;;;;;;;;;;;;;;20.62;48.19;99847.84;5129439;27;19957;-47
2022/09/29 09:33:46;;;;;;;;;;;;;;;20.66;48.47;99861.88;5144819;27;19942;-47
2022/09/29 09:36:36;;;;;;;;;;;;;;;20.66;48.38;99848.84;5122837;27;19957;-50
2022/09/29 09:39:09;;;;;;;;;;;;;;;20.67;48.59;99852.44;5135795;27;19971;-50
2022/09/29 09:41:35;;;;;;;;;;;;;;;20.67;48.60;99844.13;5136275;27;20546;-51
2022/09/29 09:44:07;;;;;;;;;;;;;;;20.68;48.43;99852.13;5138122;27;20021;-45
2022/09/29 09:46:42;;;;;;;;;;;;;;;20.69;48.64;99847.41;5133095;27;20014;-48
2022/09/29 09:49:13;;;;;;;;;;;;;;;20.69;48.82;99853.75;5149391;27;20018;-48
2022/09/29 09:51:44;;;;;;;;;;;;;;;20.70;48.32;99847.09;5123851;27;20035;-49
2022/09/29 09:54:17;;;;;;;;;;;;;;;20.68;48.17;99845.75;5150162;27;19931;-47
2022/09/29 09:56:54;;;;;;;;;;;;;;;20.70;48.32;99849.03;5138864;27;20416;-48
2022/09/29 09:59:39;;;;;;;;;;;;;;;20.70;48.27;99846.28;5141978;27;19961;-49
2022/09/29 10:02:06;;;;;;;;;;;;;;;20.68;48.34;99848.53;5131212;27;20521;-49
2022/09/29 10:04:32;;;;;;;;;;;;;;;20.66;48.10;99857.16;5150056;27;19931;-50
2022/09/29 10:06:58;;;;;;;;;;;;;;;20.67;48.15;99855.19;5140754;27;20391;-48
2022/09/29 10:09:24;;;;;;;;;;;;;;;20.66;48.50;99851.63;5145933;27;19930;-47
2022/09/29 10:11:50;;;;;;;;;;;;;;;20.68;48.25;99852.13;5145952;27;19927;-50
2022/09/29 10:14:18;;;;;;;;;;;;;;;20.70;48.73;99857.34;5146802;27;19984;-50
2022/09/29 10:17:05;;;;;;;;;;;;;;;20.70;48.33;99857.34;5127164;27;20035;-49
2022/09/29 10:19:51;;;;;;;;;;;;;;;20.66;48.19;99854.38;5133112;27;19971;-47
2022/09/29 10:22:17;;;;;;;;;;;;;;;20.66;48.33;99859.09;5131007;27;20008;-49
2022/09/29 10:24:43;;;;;;;;;;;;;;;20.66;48.62;99857.16;5130709;27;19931;-47
2022/09/29 10:27:09;;;;;;;;;;;;;;;20.66;47.92;99861.88;5134057;27;19946;-46
2022/09/29 10:29:37;;;;;;;;;;;;;;;20.67;48.24;99860.72;5127399;27;20014;-48
2022/09/29 10:32:22;;;;;;;;;;;;;;;20.62;47.87;99864.44;5108686;27;20104;-48
2022/09/29 10:34:49;;;;;;;;;;;;;;;20.66;48.18;99857.16;5114261;27;20023;-49
2022/09/29 10:37:19;;;;;;;;;;;;;;;20.68;48.53;99859.59;5105774;27;19975;-48
2022/09/29 10:39:47;;;;;;;;;;;;;;;20.67;48.00;99858.78;5120822;27;20045;-48
2022/09/29 10:42:21;;;;;;;;;;;;;;;20.68;48.16;99863.19;5106036;27;20379;-46
2022/09/29 10:44:49;;;;;;;;;;;;;;;20.69;48.14;99866.78;5122177;27;20014;-51
2022/09/29 10:47:14;;;;;;;;;;;;;;;20.68;48.29;99862.34;5120845;27;19934;-46
2022/09/29 10:49:40;;;;;;;;;;;;;;;20.69;48.34;99862.06;5133498;27;19932;-46
2022/09/29 10:52:06;;;;;;;;;;;;;;;20.67;48.27;99866.25;5126065;27;19931;-49
2022/09/29 10:54:33;;;;;;;;;;;;;;;20.67;47.83;99866.25;5113531;27;20101;-48
2022/09/29 10:56:59;;;;;;;;;;;;;;;20.67;48.21;99866.25;5130841;27;19974;-47
2022/09/29 10:59:24;;;;;;;;;;;;;;;20.68;48.18;99868.72;5130543;27;19938;-51
2022/09/29 11:01:51;;;;;;;;;;;;;;;20.72;48.22;99869.72;5129562;27;19984;-48
2022/09/29 11:04:18;;;;;;;;;;;;;;;20.71;48.18;99873.63;5111618;27;20431;-47
2022/09/29 11:06:44;;;;;;;;;;;;;;;20.70;48.18;99872.00;5125703;27;20265;-48
2022/09/29 11:11:50;;;;;;;;;;;;;;;20.70;47.96;99871.19;5143448;27;19930;-49
2022/09/29 11:14:35;;;;;;;;;;;;;;;20.71;47.83;99881.09;5148565;27;20064;-49
2022/09/29 11:17:02;;;;;;;;;;;;;;;20.57;47.51;99877.59;5106445;27;21471;-51
2022/09/29 11:19:28;;;;;;;;;;;;;;;20.70;47.51;99874.75;5133647;27;19931;-51
2022/09/29 11:22:00;;;;;;;;;;;;;;;20.74;47.60;99878.53;5136063;27;20584;-50
2022/09/29 11:24:46;;;;;;;;;;;;;;;20.71;47.55;99884.69;5118896;27;20032;-48
2022/09/29 11:27:29;;;;;;;;;;;;;;;20.71;47.63;99884.69;5119904;27;20937;-52
2022/09/29 11:30:11;;;;;;;;;;;;;;;20.70;47.45;99885.81;5135202;27;20435;-50
2022/09/29 11:32:39;;;;;;;;;;;;;;;20.72;47.79;99882.72;5140981;27;19971;-51
2022/09/29 11:37:50;;;;;;;;;;;;;;;20.73;47.48;99887.16;5156926;27;19941;-49
2022/09/29 11:40:37;;;;;;;;;;;;;;;20.56;47.49;99882.31;5149676;27;20382;-51
2022/09/29 11:43:06;;;;;;;;;;;;;;;20.73;47.43;99882.44;5128505;27;20018;-49
2022/09/29 11:45:36;;;;;;;;;;;;;;;20.78;47.74;99887.81;5137084;27;20018;-50
2022/09/29 11:48:12;;;;;;;;;;;;;;;20.70;46.18;99891.34;5121082;27;19923;-43
2022/09/29 11:53:23;;;;;;;;;;;;;;;20.79;46.93;99886.69;5173381;27;19953;-38
2022/09/29 11:55:55;;;;;;;;;;;;;;;20.82;47.52;99890.78;5154020;27;19989;-37
2022/09/29 11:58:25;;;;;;;;;;;;;;;20.82;47.27;99892.72;5150180;27;19923;-37
2022/09/29 12:01:08;;;;;;;;;;;;;;;20.79;47.33;99892.22;5154775;27;19966;-37
2022/09/29 12:03:54;;;;;;;;;;;;;;;20.83;47.65;99889.66;5150704;27;20394;-37
2022/09/29 12:06:28;;;;;;;;;;;;;;;20.83;47.65;99884.09;5129747;27;19981;-38
2022/09/29 12:09:00;;;;;;;;;;;;;;;20.82;47.52;99890.78;5154826;27;20034;-38
2022/09/29 12:11:46;;;;;;;;;;;;;;;20.82;47.57;99881.66;5151803;27;20072;-38
2022/09/29 12:14:37;;;;;;;;;;;;;;;20.81;47.24;99886.34;5126853;27;19923;-37
2022/09/29 12:17:08;;;;;;;;;;;;;;;20.81;47.30;99886.34;5152794;27;19923;-38
2022/09/29 12:19:35;;;;;;;;;;;;;;;20.82;47.28;99884.44;5135583;27;19932;-38
2022/09/29 12:22:01;;;;;;;;;;;;;;;20.80;47.12;99885.53;5148914;27;20363;-38
2022/09/29 12:24:45;;;;;;;;;;;;;;;20.81;47.17;99886.34;5161856;27;19930;-38
2022/09/29 12:27:12;;;;;;;;;;;;;;;20.81;47.24;99883.59;5152186;27;19997;-37
2022/09/29 12:29:39;;;;;;;;;;;;;;;20.81;47.23;99886.34;5146668;27;19966;-37
2022/09/29 12:32:08;;;;;;;;;;;;;;;20.82;47.29;99888.00;5146752;27;20430;-37
2022/09/29 12:34:53;;;;;;;;;;;;;;;20.83;46.87;99886.06;5143074;27;20021;-38
2022/09/29 12:37:22;;;;;;;;;;;;;;;20.80;46.34;99885.53;5139973;27;19927;-38
2022/09/29 12:39:52;;;;;;;;;;;;;;;20.82;46.71;99876.94;5151079;27;19977;-38
2022/09/29 12:45:01;;;;;;;;;;;;;;;20.83;46.56;99886.88;5158534;27;19925;-38
2022/09/29 12:50:09;;;;;;;;;;;;;;;20.80;45.41;99884.72;5162253;27;19941;-38
2022/09/29 12:52:39;;;;;;;;;;;;;;;20.78;45.03;99884.25;5136871;27;20524;-38
2022/09/29 12:55:07;;;;;;;;;;;;;;;20.79;45.31;99883.09;5141988;27;20026;-37
2022/09/29 12:57:35;;;;;;;;;;;;;;;20.75;44.80;99882.91;5139450;27;20422;-38
2022/09/29 13:00:03;;;;;;;;;;;;;;;20.77;44.87;99885.38;5140177;27;19965;-38
2022/09/29 13:02:48;;;;;;;;;;;;;;;20.79;45.03;99888.63;5141183;27;20572;-38
2022/09/29 13:05:34;;;;;;;;;;;;;;;20.82;44.49;99889.97;5126561;27;20014;-37
2022/09/29 13:08:19;;;;;;;;;;;;;;;20.79;44.79;99886.69;5123570;27;20027;-37
2022/09/29 13:10:49;;;;;;;;;;;;;;;20.77;43.99;99882.63;5125003;27;20026;-42
2022/09/29 13:13:35;;;;;;;;;;;;;;;20.77;44.38;99882.63;5119614;27;19931;-38
2022/09/29 13:16:20;;;;;;;;;;;;;;;20.78;44.20;99887.81;5123410;27;20347;-38
2022/09/29 13:18:55;;;;;;;;;;;;;;;20.80;45.16;99893.03;5118100;27;20015;-38
2022/09/29 13:24:21;;;;;;;;;;;;;;;20.82;44.50;99898.28;5173683;27;19944;-35